sensor_id;sensor_type;location;lat;lon;timestamp;pressure;altitude;pressure_sealevel;temperature
72675;BMP280;60752;53.962;9.614;2023-03-14T00:04:07;58356.31;;;-145.28
72675;BMP280;60752;53.962;9.614;2023-03-14T00:09:28;58385.84;;;-145.28
72675;BMP280;60752;53.962;9.614;2023-03-14T00:14:50;58374.03;;;-145.28
72675;BMP280;60752;53.962;9.614;2023-03-14T00:20:12;58377.97;;;-145.28
72675;BMP280;60752;53.962;9.614;2023-03-14T00:25:35;58374.03;;;-145.28
72675;BMP280;60752;53.962;9.614;2023-03-14T00:30:57;58360.25;;;-145.28
72675;BMP280;60752;53.962;9.614;2023-03-14T00:36:18;58368.13;;;-145.28
72675;BMP280;60752;53.962;9.614;2023-03-14T00:41:38;58413.41;;;-145.28
72675;BMP280;60752;53.962;9.614;2023-03-14T00:47:00;58350.41;;;-145.28
72675;BMP280;60752;53.962;9.614;2023-03-14T00:52:21;58374.03;;;-145.28
72675;BMP280;60752;53.962;9.614;2023-03-14T00:57:42;58381.91;;;-145.28
72675;BMP280;60752;53.962;9.614;2023-03-14T01:03:04;58391.75;;;-145.28
72675;BMP280;60752;53.962;9.614;2023-03-14T01:08:25;58366.16;;;-145.28
72675;BMP280;60752;53.962;9.614;2023-03-14T01:13:45;58409.47;;;-145.28
72675;BMP280;60752;53.962;9.614;2023-03-14T01:19:09;58387.81;;;-145.28
72675;BMP280;60752;53.962;9.614;2023-03-14T01:24:30;58372.06;;;-145.28
72675;BMP280;60752;53.962;9.614;2023-03-14T01:29:50;58364.19;;;-145.28
72675;BMP280;60752;53.962;9.614;2023-03-14T01:35:12;58387.81;;;-145.28
72675;BMP280;60752;53.962;9.614;2023-03-14T01:40:33;58376.00;;;-145.28
72675;BMP280;60752;53.962;9.614;2023-03-14T01:46:19;58370.09;;;-145.28
72675;BMP280;60752;53.962;9.614;2023-03-14T01:51:49;58385.84;;;-145.28
72675;BMP280;60752;53.962;9.614;2023-03-14T01:57:14;58391.75;;;-145.28
72675;BMP280;60752;53.962;9.614;2023-03-14T02:02:35;58385.84;;;-145.28
72675;BMP280;60752;53.962;9.614;2023-03-14T02:07:59;58354.34;;;-145.28
72675;BMP280;60752;53.962;9.614;2023-03-14T02:13:21;58389.78;;;-145.28
72675;BMP280;60752;53.962;9.614;2023-03-14T02:18:42;58381.91;;;-145.28
72675;BMP280;60752;53.962;9.614;2023-03-14T02:24:09;58374.03;;;-145.28
72675;BMP280;60752;53.962;9.614;2023-03-14T02:29:37;58405.53;;;-145.28
72675;BMP280;60752;53.962;9.614;2023-03-14T02:35:03;58397.66;;;-145.28
72675;BMP280;60752;53.962;9.614;2023-03-14T02:40:25;58379.94;;;-145.28
72675;BMP280;60752;53.962;9.614;2023-03-14T02:45:49;58405.53;;;-145.28
72675;BMP280;60752;53.962;9.614;2023-03-14T02:51:10;58381.91;;;-145.28
72675;BMP280;60752;53.962;9.614;2023-03-14T02:56:31;58395.69;;;-145.28
72675;BMP280;60752;53.962;9.614;2023-03-14T03:01:53;58364.19;;;-145.28
72675;BMP280;60752;53.962;9.614;2023-03-14T03:07:13;58368.13;;;-145.28
72675;BMP280;60752;53.962;9.614;2023-03-14T03:12:34;58381.91;;;-145.28
72675;BMP280;60752;53.962;9.614;2023-03-14T03:17:56;58346.47;;;-145.28
72675;BMP280;60752;53.962;9.614;2023-03-14T03:23:17;58366.16;;;-145.28
72675;BMP280;60752;53.962;9.614;2023-03-14T03:28:38;58379.94;;;-145.28
72675;BMP280;60752;53.962;9.614;2023-03-14T03:34:00;58397.66;;;-145.28
72675;BMP280;60752;53.962;9.614;2023-03-14T03:39:20;58379.94;;;-145.28
72675;BMP280;60752;53.962;9.614;2023-03-14T03:44:41;58399.63;;;-145.28
72675;BMP280;60752;53.962;9.614;2023-03-14T03:50:04;58381.91;;;-145.28
72675;BMP280;60752;53.962;9.614;2023-03-14T03:55:25;58397.66;;;-145.28
72675;BMP280;60752;53.962;9.614;2023-03-14T04:00:46;58362.22;;;-145.28
72675;BMP280;60752;53.962;9.614;2023-03-14T04:06:10;58372.06;;;-145.28
72675;BMP280;60752;53.962;9.614;2023-03-14T04:11:31;58389.78;;;-145.28
72675;BMP280;60752;53.962;9.614;2023-03-14T04:16:51;58389.78;;;-145.28
72675;BMP280;60752;53.962;9.614;2023-03-14T04:22:13;58401.59;;;-145.28
72675;BMP280;60752;53.962;9.614;2023-03-14T04:27:34;58393.72;;;-145.28
72675;BMP280;60752;53.962;9.614;2023-03-14T04:32:55;58395.69;;;-145.28
72675;BMP280;60752;53.962;9.614;2023-03-14T04:38:17;58377.97;;;-145.28
72675;BMP280;60752;53.962;9.614;2023-03-14T04:43:38;58362.22;;;-145.28
72675;BMP280;60752;53.962;9.614;2023-03-14T04:48:58;58377.97;;;-145.28
72675;BMP280;60752;53.962;9.614;2023-03-14T04:54:20;58374.03;;;-145.28
72675;BMP280;60752;53.962;9.614;2023-03-14T04:59:41;58389.78;;;-145.28
72675;BMP280;60752;53.962;9.614;2023-03-14T05:05:02;58381.91;;;-145.28
72675;BMP280;60752;53.962;9.614;2023-03-14T05:10:24;58401.59;;;-145.28
72675;BMP280;60752;53.962;9.614;2023-03-14T05:15:45;58403.56;;;-145.28
72675;BMP280;60752;53.962;9.614;2023-03-14T05:21:06;58393.72;;;-145.28
72675;BMP280;60752;53.962;9.614;2023-03-14T05:26:28;58334.66;;;-145.28
72675;BMP280;60752;53.962;9.614;2023-03-14T05:31:49;58362.22;;;-145.28
72675;BMP280;60752;53.962;9.614;2023-03-14T05:37:09;58393.72;;;-145.28
72675;BMP280;60752;53.962;9.614;2023-03-14T05:42:32;58370.09;;;-145.28
72675;BMP280;60752;53.962;9.614;2023-03-14T05:47:52;58377.97;;;-145.28
72675;BMP280;60752;53.962;9.614;2023-03-14T05:53:13;58377.97;;;-145.28
72675;BMP280;60752;53.962;9.614;2023-03-14T05:58:35;58370.09;;;-145.28
72675;BMP280;60752;53.962;9.614;2023-03-14T06:03:56;58372.06;;;-145.28
72675;BMP280;60752;53.962;9.614;2023-03-14T06:09:17;58370.09;;;-145.28
72675;BMP280;60752;53.962;9.614;2023-03-14T06:14:39;58393.72;;;-145.28
72675;BMP280;60752;53.962;9.614;2023-03-14T06:19:59;58397.66;;;-145.28
72675;BMP280;60752;53.962;9.614;2023-03-14T06:25:20;58383.88;;;-145.28
72675;BMP280;60752;53.962;9.614;2023-03-14T06:30:42;58372.06;;;-145.28
72675;BMP280;60752;53.962;9.614;2023-03-14T06:36:03;58374.03;;;-145.28
72675;BMP280;60752;53.962;9.614;2023-03-14T06:41:24;58370.09;;;-145.28
72675;BMP280;60752;53.962;9.614;2023-03-14T06:46:46;58407.50;;;-145.28
72675;BMP280;60752;53.962;9.614;2023-03-14T06:52:07;58370.09;;;-145.28
72675;BMP280;60752;53.962;9.614;2023-03-14T06:57:28;58374.03;;;-145.28
72675;BMP280;60752;53.962;9.614;2023-03-14T07:02:50;58352.38;;;-145.28
72675;BMP280;60752;53.962;9.614;2023-03-14T07:08:11;58376.00;;;-145.28
72675;BMP280;60752;53.962;9.614;2023-03-14T07:13:31;58356.31;;;-145.28
72675;BMP280;60752;53.962;9.614;2023-03-14T07:18:53;58366.16;;;-145.28
72675;BMP280;60752;53.962;9.614;2023-03-14T07:24:14;58370.09;;;-145.28
72675;BMP280;60752;53.962;9.614;2023-03-14T07:29:35;58383.88;;;-145.28
72675;BMP280;60752;53.962;9.614;2023-03-14T07:34:57;58399.63;;;-145.28
72675;BMP280;60752;53.962;9.614;2023-03-14T07:40:18;58403.56;;;-145.28
72675;BMP280;60752;53.962;9.614;2023-03-14T07:45:38;58389.78;;;-145.28
72675;BMP280;60752;53.962;9.614;2023-03-14T07:51:01;58340.56;;;-145.28
72675;BMP280;60752;53.962;9.614;2023-03-14T07:56:21;58346.47;;;-145.28
72675;BMP280;60752;53.962;9.614;2023-03-14T08:01:42;58391.75;;;-145.28
72675;BMP280;60752;53.962;9.614;2023-03-14T08:07:04;58360.25;;;-145.28
72675;BMP280;60752;53.962;9.614;2023-03-14T08:12:25;58354.34;;;-145.28
72675;BMP280;60752;53.962;9.614;2023-03-14T08:17:46;58393.72;;;-145.28
72675;BMP280;60752;53.962;9.614;2023-03-14T08:23:08;58358.28;;;-145.28
72675;BMP280;60752;53.962;9.614;2023-03-14T08:28:29;58407.50;;;-145.28
72675;BMP280;60752;53.962;9.614;2023-03-14T08:33:49;58379.94;;;-145.28
72675;BMP280;60752;53.962;9.614;2023-03-14T08:39:11;58387.81;;;-145.28
72675;BMP280;60752;53.962;9.614;2023-03-14T08:44:32;58372.06;;;-145.28
72675;BMP280;60752;53.962;9.614;2023-03-14T08:49:53;58419.31;;;-145.28
72675;BMP280;60752;53.962;9.614;2023-03-14T08:55:15;58383.88;;;-145.28
72675;BMP280;60752;53.962;9.614;2023-03-14T09:00:36;58370.09;;;-145.28
72675;BMP280;60752;53.962;9.614;2023-03-14T09:06:01;58368.13;;;-145.28
72675;BMP280;60752;53.962;9.614;2023-03-14T09:11:24;58387.81;;;-145.28
72675;BMP280;60752;53.962;9.614;2023-03-14T09:16:44;58368.13;;;-145.28
72675;BMP280;60752;53.962;9.614;2023-03-14T09:22:05;58391.75;;;-145.28
72675;BMP280;60752;53.962;9.614;2023-03-14T09:27:27;58403.56;;;-145.28
72675;BMP280;60752;53.962;9.614;2023-03-14T09:32:48;58374.03;;;-145.28
72675;BMP280;60752;53.962;9.614;2023-03-14T09:38:09;58389.78;;;-145.28
72675;BMP280;60752;53.962;9.614;2023-03-14T09:43:33;58415.38;;;-145.28
72675;BMP280;60752;53.962;9.614;2023-03-14T09:48:55;58403.56;;;-145.28
72675;BMP280;60752;53.962;9.614;2023-03-14T09:54:26;58379.94;;;-145.28
72675;BMP280;60752;53.962;9.614;2023-03-14T09:59:53;58374.03;;;-145.28
72675;BMP280;60752;53.962;9.614;2023-03-14T10:05:16;58397.66;;;-145.28
72675;BMP280;60752;53.962;9.614;2023-03-14T10:10:37;58395.69;;;-145.28
72675;BMP280;60752;53.962;9.614;2023-03-14T10:16:01;58391.75;;;-145.28
72675;BMP280;60752;53.962;9.614;2023-03-14T10:21:27;58437.03;;;-145.28
72675;BMP280;60752;53.962;9.614;2023-03-14T10:26:49;58427.19;;;-145.28
72675;BMP280;60752;53.962;9.614;2023-03-14T10:32:18;58383.88;;;-145.28
72675;BMP280;60752;53.962;9.614;2023-03-14T10:37:48;58399.63;;;-145.28
72675;BMP280;60752;53.962;9.614;2023-03-14T10:43:15;58411.44;;;-145.28
72675;BMP280;60752;53.962;9.614;2023-03-14T10:48:39;58397.66;;;-145.28
72675;BMP280;60752;53.962;9.614;2023-03-14T10:54:01;58415.38;;;-145.28
72675;BMP280;60752;53.962;9.614;2023-03-14T10:59:22;58385.84;;;-145.28
72675;BMP280;60752;53.962;9.614;2023-03-14T11:04:56;58405.53;;;-145.28
72675;BMP280;60752;53.962;9.614;2023-03-14T11:10:23;58415.38;;;-145.28
72675;BMP280;60752;53.962;9.614;2023-03-14T11:15:51;58429.16;;;-145.28
72675;BMP280;60752;53.962;9.614;2023-03-14T11:21:20;58409.47;;;-145.28
72675;BMP280;60752;53.962;9.614;2023-03-14T11:26:48;58417.34;;;-145.28
72675;BMP280;60752;53.962;9.614;2023-03-14T11:32:13;58407.50;;;-145.28
72675;BMP280;60752;53.962;9.614;2023-03-14T11:37:40;58393.72;;;-145.28
72675;BMP280;60752;53.962;9.614;2023-03-14T11:43:11;58415.38;;;-145.28
72675;BMP280;60752;53.962;9.614;2023-03-14T11:48:39;58423.25;;;-145.28
72675;BMP280;60752;53.962;9.614;2023-03-14T11:54:10;58425.22;;;-145.28
72675;BMP280;60752;53.962;9.614;2023-03-14T11:59:41;58395.69;;;-145.28
72675;BMP280;60752;53.962;9.614;2023-03-14T12:05:27;58427.19;;;-145.28
72675;BMP280;60752;53.962;9.614;2023-03-14T12:10:52;58425.22;;;-145.28
72675;BMP280;60752;53.962;9.614;2023-03-14T12:16:36;58437.03;;;-145.28
72675;BMP280;60752;53.962;9.614;2023-03-14T12:22:01;58413.41;;;-145.28
72675;BMP280;60752;53.962;9.614;2023-03-14T12:33:30;58403.56;;;-145.28
72675;BMP280;60752;53.962;9.614;2023-03-14T12:39:01;58389.78;;;-145.28
72675;BMP280;60752;53.962;9.614;2023-03-14T12:44:46;58417.34;;;-145.28
72675;BMP280;60752;53.962;9.614;2023-03-14T12:50:12;58405.53;;;-145.28
72675;BMP280;60752;53.962;9.614;2023-03-14T12:55:37;58431.13;;;-145.28
72675;BMP280;60752;53.962;9.614;2023-03-14T13:01:05;58393.72;;;-145.28
72675;BMP280;60752;53.962;9.614;2023-03-14T13:06:47;58423.25;;;-145.28
72675;BMP280;60752;53.962;9.614;2023-03-14T13:12:10;58431.13;;;-145.28
72675;BMP280;60752;53.962;9.614;2023-03-14T13:17:33;58427.19;;;-145.28
72675;BMP280;60752;53.962;9.614;2023-03-14T13:22:54;58444.91;;;-145.28
72675;BMP280;60752;53.962;9.614;2023-03-14T13:28:16;58423.25;;;-145.28
72675;BMP280;60752;53.962;9.614;2023-03-14T13:33:40;58419.31;;;-145.28
72675;BMP280;60752;53.962;9.614;2023-03-14T13:39:01;58399.63;;;-145.28
72675;BMP280;60752;53.962;9.614;2023-03-14T13:44:25;58442.94;;;-145.28
72675;BMP280;60752;53.962;9.614;2023-03-14T13:49:48;58399.63;;;-145.28
72675;BMP280;60752;53.962;9.614;2023-03-14T13:55:15;58395.69;;;-145.28
72675;BMP280;60752;53.962;9.614;2023-03-14T14:00:36;58427.19;;;-145.28
72675;BMP280;60752;53.962;9.614;2023-03-14T14:05:58;58433.09;;;-145.28
72675;BMP280;60752;53.962;9.614;2023-03-14T14:11:30;58437.03;;;-145.28
72675;BMP280;60752;53.962;9.614;2023-03-14T14:16:52;58429.16;;;-145.28
72675;BMP280;60752;53.962;9.614;2023-03-14T14:22:16;58440.97;;;-145.28
72675;BMP280;60752;53.962;9.614;2023-03-14T14:27:37;58446.88;;;-145.28
72675;BMP280;60752;53.962;9.614;2023-03-14T14:33:17;58456.72;;;-145.28
72675;BMP280;60752;53.962;9.614;2023-03-14T14:38:39;58437.03;;;-145.28
72675;BMP280;60752;53.962;9.614;2023-03-14T14:44:03;58429.16;;;-145.28
72675;BMP280;60752;53.962;9.614;2023-03-14T14:49:29;58440.97;;;-145.28
72675;BMP280;60752;53.962;9.614;2023-03-14T14:54:54;58448.84;;;-145.28
72675;BMP280;60752;53.962;9.614;2023-03-14T15:00:20;58444.91;;;-145.28
72675;BMP280;60752;53.962;9.614;2023-03-14T15:05:41;58440.97;;;-145.28
72675;BMP280;60752;53.962;9.614;2023-03-14T15:11:04;58413.41;;;-145.28
72675;BMP280;60752;53.962;9.614;2023-03-14T15:16:28;58456.72;;;-145.28
72675;BMP280;60752;53.962;9.614;2023-03-14T15:21:49;58442.94;;;-145.28
72675;BMP280;60752;53.962;9.614;2023-03-14T15:27:13;58450.81;;;-145.28
72675;BMP280;60752;53.962;9.614;2023-03-14T15:32:35;58466.56;;;-145.28
72675;BMP280;60752;53.962;9.614;2023-03-14T15:37:56;58458.69;;;-145.28
72675;BMP280;60752;53.962;9.614;2023-03-14T15:43:18;58437.03;;;-145.28
72675;BMP280;60752;53.962;9.614;2023-03-14T15:48:39;58411.44;;;-145.28
72675;BMP280;60752;53.962;9.614;2023-03-14T15:53:59;58409.47;;;-145.28
72675;BMP280;60752;53.962;9.614;2023-03-14T15:59:22;58405.53;;;-145.28
72675;BMP280;60752;53.962;9.614;2023-03-14T16:04:42;58429.16;;;-145.28
72675;BMP280;60752;53.962;9.614;2023-03-14T16:10:04;58419.31;;;-145.28
72675;BMP280;60752;53.962;9.614;2023-03-14T16:15:27;58417.34;;;-145.28
72675;BMP280;60752;53.962;9.614;2023-03-14T16:20:52;58411.44;;;-145.28
72675;BMP280;60752;53.962;9.614;2023-03-14T16:26:14;58437.03;;;-145.28
72675;BMP280;60752;53.962;9.614;2023-03-14T16:31:36;58442.94;;;-145.28
72675;BMP280;60752;53.962;9.614;2023-03-14T16:36:57;58452.78;;;-145.28
72675;BMP280;60752;53.962;9.614;2023-03-14T16:42:18;58452.78;;;-145.28
72675;BMP280;60752;53.962;9.614;2023-03-14T16:47:41;58442.94;;;-145.28
72675;BMP280;60752;53.962;9.614;2023-03-14T16:53:02;58468.53;;;-145.28
72675;BMP280;60752;53.962;9.614;2023-03-14T16:58:23;58450.81;;;-145.28
72675;BMP280;60752;53.962;9.614;2023-03-14T17:03:46;58429.16;;;-145.28
72675;BMP280;60752;53.962;9.614;2023-03-14T17:09:07;58444.91;;;-145.28
72675;BMP280;60752;53.962;9.614;2023-03-14T17:14:28;58413.41;;;-145.28
72675;BMP280;60752;53.962;9.614;2023-03-14T17:19:50;58454.75;;;-145.28
72675;BMP280;60752;53.962;9.614;2023-03-14T17:25:11;58456.72;;;-145.28
72675;BMP280;60752;53.962;9.614;2023-03-14T17:30:32;58405.53;;;-145.28
72675;BMP280;60752;53.962;9.614;2023-03-14T17:35:54;58423.25;;;-145.28
72675;BMP280;60752;53.962;9.614;2023-03-14T17:41:15;58444.91;;;-145.28
72675;BMP280;60752;53.962;9.614;2023-03-14T17:46:36;58423.25;;;-145.28
72675;BMP280;60752;53.962;9.614;2023-03-14T17:51:58;58440.97;;;-145.28
72675;BMP280;60752;53.962;9.614;2023-03-14T17:57:18;58423.25;;;-145.28
72675;BMP280;60752;53.962;9.614;2023-03-14T18:02:39;58433.09;;;-145.28
72675;BMP280;60752;53.962;9.614;2023-03-14T18:08:01;58460.66;;;-145.28
72675;BMP280;60752;53.962;9.614;2023-03-14T18:13:22;58421.28;;;-145.28
72675;BMP280;60752;53.962;9.614;2023-03-14T18:18:44;58417.34;;;-145.28
72675;BMP280;60752;53.962;9.614;2023-03-14T18:24:06;58421.28;;;-145.28
72675;BMP280;60752;53.962;9.614;2023-03-14T18:29:27;58440.97;;;-145.28
72675;BMP280;60752;53.962;9.614;2023-03-14T18:34:48;58435.06;;;-145.28
72675;BMP280;60752;53.962;9.614;2023-03-14T18:40:11;58450.81;;;-145.28
72675;BMP280;60752;53.962;9.614;2023-03-14T18:45:32;58413.41;;;-145.28
72675;BMP280;60752;53.962;9.614;2023-03-14T18:50:53;58444.91;;;-145.28
72675;BMP280;60752;53.962;9.614;2023-03-14T18:56:15;58452.78;;;-145.28
72675;BMP280;60752;53.962;9.614;2023-03-14T19:01:36;58456.72;;;-145.28
72675;BMP280;60752;53.962;9.614;2023-03-14T19:06:57;58415.38;;;-145.28
72675;BMP280;60752;53.962;9.614;2023-03-14T19:12:19;58433.09;;;-145.28
72675;BMP280;60752;53.962;9.614;2023-03-14T19:17:40;58425.22;;;-145.28
72675;BMP280;60752;53.962;9.614;2023-03-14T19:23:01;58417.34;;;-145.28
72675;BMP280;60752;53.962;9.614;2023-03-14T19:28:23;58417.34;;;-145.28
72675;BMP280;60752;53.962;9.614;2023-03-14T19:33:44;58458.69;;;-145.28
72675;BMP280;60752;53.962;9.614;2023-03-14T19:39:05;58460.66;;;-145.28
72675;BMP280;60752;53.962;9.614;2023-03-14T19:44:27;58468.53;;;-145.28
72675;BMP280;60752;53.962;9.614;2023-03-14T19:49:48;58456.72;;;-145.28
72675;BMP280;60752;53.962;9.614;2023-03-14T19:55:09;58442.94;;;-145.28
72675;BMP280;60752;53.962;9.614;2023-03-14T20:00:31;58435.06;;;-145.28
72675;BMP280;60752;53.962;9.614;2023-03-14T20:05:52;58423.25;;;-145.28
72675;BMP280;60752;53.962;9.614;2023-03-14T20:11:13;58450.81;;;-145.28
72675;BMP280;60752;53.962;9.614;2023-03-14T20:16:35;58454.75;;;-145.28
72675;BMP280;60752;53.962;9.614;2023-03-14T20:21:56;58466.56;;;-145.28
72675;BMP280;60752;53.962;9.614;2023-03-14T20:27:17;58429.16;;;-145.28
72675;BMP280;60752;53.962;9.614;2023-03-14T20:32:39;58440.97;;;-145.28
72675;BMP280;60752;53.962;9.614;2023-03-14T20:38:00;58446.88;;;-145.28
72675;BMP280;60752;53.962;9.614;2023-03-14T20:43:21;58446.88;;;-145.28
72675;BMP280;60752;53.962;9.614;2023-03-14T20:48:43;58442.94;;;-145.28
72675;BMP280;60752;53.962;9.614;2023-03-14T20:58:48;58466.56;;;-145.28
72675;BMP280;60752;53.962;9.614;2023-03-14T21:03:48;58439.00;;;-145.28
72675;BMP280;60752;53.962;9.614;2023-03-14T21:08:49;58440.97;;;-145.28
72675;BMP280;60752;53.962;9.614;2023-03-14T21:13:50;58448.84;;;-145.28
72675;BMP280;60752;53.962;9.614;2023-03-14T21:18:51;58437.03;;;-145.28
72675;BMP280;60752;53.962;9.614;2023-03-14T21:23:51;58460.66;;;-145.28
72675;BMP280;60752;53.962;9.614;2023-03-14T21:28:53;58425.22;;;-145.28
72675;BMP280;60752;53.962;9.614;2023-03-14T21:33:53;58431.13;;;-145.28
72675;BMP280;60752;53.962;9.614;2023-03-14T21:38:53;58433.09;;;-145.28
72675;BMP280;60752;53.962;9.614;2023-03-14T21:43:55;58435.06;;;-145.28
72675;BMP280;60752;53.962;9.614;2023-03-14T21:48:55;58423.25;;;-145.28
72675;BMP280;60752;53.962;9.614;2023-03-14T21:53:56;58444.91;;;-145.28
72675;BMP280;60752;53.962;9.614;2023-03-14T22:02:58;58437.03;;;-145.28
72675;BMP280;60752;53.962;9.614;2023-03-14T22:07:58;58429.16;;;-145.28
72675;BMP280;60752;53.962;9.614;2023-03-14T22:10:14;58419.31;;;-145.28
72675;BMP280;60752;53.962;9.614;2023-03-14T22:10:24;58442.94;;;-145.28
